dimanche 20 avril 2014

ALERTE SPOTTING 20/04/14


744 EC-KQC Pullmantur Air
  PLM6121/PLM710P   08h50/10h50

757 G-ZAPX Titan Airways
   JAF7295/JAF7296   11h05/12h00

320 F-GHQE Air Corsica
   XK4503/XK4502  11h50/12h55
  XK4505/XK4504   20h15/21h20


744 EC-LNA Pullmantur Air
   dpt AT749  12h00
 AT740/AT645   19h15/20h55

32A EC-LVP Vueling (couleur Linking Europe)
     dpt VY1983 07h00
   VY1984/VY1985   12h10/12h45
  VY1986/VY8029  17h25/ 18h15
 arv VY8028  22h10

IL9 CU-T1251 Cubana
   CU444/CU441  13h55/15h55

 Manque les prévisions de : certains AB / AH / AZ / BA / BE / IB / KM / TP / TU
*** Heures en Local Time **
Prévisions matinales soumises à modifications de dernières minute.
 Voir le log du mois pour la version 'définitive' de la journée: 
 http://www.airkalo.com/ORLYAVIATION/Logdumois.html

le TAF de la journée:

METAR: LFPO 200230Z 00000KT CAVOK 09/04 Q1005 NOSIG=
TAF LONG: LFPO 192300Z 2000/2106 02007KT 9999 BKN040 TEMPO 2000/2003 5000
-RA BKN020 TEMPO 2003/2006 3000 RA BKN008 BECMG 2006/2009 15007KT
BECMG 2011/2014 CAVOK BECMG 2103/2106 22005KT -RA BKN013=